Time;durP1;ratioP1;P1;durP2;ratioP2;P2;SDS_P1;SDS_P2;PMS_P1;PMS_P2;Temp;Humidity;BMP_temperature;BMP_pressure;BME280_temperature;BME280_humidity;BME280_pressure;Samples;Min_cycle;Max_cycle;Signal;HPM_P1;HPM_P2
2023/03/16 00:01:09;;;;;;;8.57;4.00;;;;;;;2.46;63.41;100908.53;12946766;22;20020;-73
2023/03/16 00:06:10;;;;;;;17.55;5.05;;;;;;;2.40;63.25;100914.28;12949532;22;20023;-71
2023/03/16 00:11:11;;;;;;;10.45;4.93;;;;;;;2.42;63.41;100919.47;12986684;22;20023;-67
2023/03/16 00:16:15;;;;;;;9.65;5.32;;;;;;;2.43;63.03;100921.16;12972048;22;20024;-67
2023/03/16 00:21:17;;;;;;;8.88;4.18;;;;;;;2.42;62.89;100915.00;12973601;22;20091;-66
2023/03/16 00:26:18;;;;;;;9.18;4.63;;;;;;;2.39;63.09;100920.56;12974257;22;20085;-68
2023/03/16 00:31:20;;;;;;;10.95;4.57;;;;;;;2.39;63.35;100907.28;12972939;22;20027;-67
2023/03/16 00:36:21;;;;;;;12.05;4.50;;;;;;;2.37;63.84;100898.59;12973448;22;20090;-67
2023/03/16 00:41:23;;;;;;;8.82;4.43;;;;;;;2.29;63.60;100890.31;12973132;22;20098;-67
2023/03/16 00:46:25;;;;;;;13.70;4.63;;;;;;;2.16;63.89;100896.47;12946019;22;20093;-67
2023/03/16 00:51:27;;;;;;;11.40;4.82;;;;;;;2.18;64.15;100904.34;12970490;22;20019;-67
2023/03/16 00:56:29;;;;;;;10.30;5.03;;;;;;;2.18;63.86;100897.22;12981008;22;20031;-67
2023/03/16 01:01:31;;;;;;;11.13;5.18;;;;;;;2.01;64.50;100897.56;12972445;22;20023;-67
2023/03/16 01:06:33;;;;;;;10.95;4.82;;;;;;;1.94;64.78;100897.16;12973096;22;20020;-66
2023/03/16 01:11:34;;;;;;;12.27;4.38;;;;;;;1.95;64.96;100890.03;12970461;22;20023;-68
2023/03/16 01:16:36;;;;;;;13.48;5.55;;;;;;;1.99;64.51;100894.16;12944275;22;20023;-66
2023/03/16 01:21:41;;;;;;;12.98;5.00;;;;;;;2.01;64.61;100894.06;12976950;22;20027;-67
2023/03/16 01:26:43;;;;;;;7.18;4.22;;;;;;;1.87;64.63;100900.31;12973129;22;20024;-67
2023/03/16 01:31:45;;;;;;;11.20;5.15;;;;;;;1.93;65.28;100892.78;12972117;22;20082;-67
2023/03/16 01:36:48;;;;;;;8.13;4.63;;;;;;;1.97;64.33;100885.47;12971755;22;20024;-67
2023/03/16 01:41:50;;;;;;;8.65;4.00;;;;;;;1.87;65.29;100881.78;12919374;22;20696;-66
2023/03/16 01:46:51;;;;;;;13.15;4.93;;;;;;;1.91;64.67;100870.84;12918809;22;20035;-67
2023/03/16 01:51:59;;;;;;;9.90;5.28;;;;;;;1.95;64.75;100868.81;12972037;22;20093;-67
2023/03/16 01:57:08;;;;;;;6.55;4.03;;;;;;;1.92;64.46;100856.63;12970846;22;20026;-66
2023/03/16 02:02:14;;;;;;;7.70;3.45;;;;;;;1.90;64.52;100847.94;12972184;22;20026;-67
2023/03/16 02:07:18;;;;;;;8.57;4.40;;;;;;;1.89;65.42;100842.75;12943995;22;20336;-66
2023/03/16 02:12:20;;;;;;;10.05;4.35;;;;;;;1.85;64.66;100860.66;12950090;22;20023;-66
2023/03/16 02:17:27;;;;;;;14.48;4.32;;;;;;;1.68;65.54;100859.22;12970132;22;20078;-67
2023/03/16 02:22:29;;;;;;;12.50;5.07;;;;;;;1.64;65.17;100870.97;12970470;22;20027;-66
2023/03/16 02:27:41;;;;;;;10.30;5.18;;;;;;;1.67;65.36;100857.50;12976290;22;20085;-68
2023/03/16 02:32:45;;;;;;;10.23;5.05;;;;;;;1.69;65.32;100841.50;12968692;22;20028;-67
2023/03/16 02:37:47;;;;;;;15.13;5.63;;;;;;;1.68;65.82;100837.13;12969777;22;20036;-67
2023/03/16 02:42:57;;;;;;;9.98;4.75;;;;;;;1.63;66.03;100824.22;12970210;22;20089;-67
2023/03/16 02:48:04;;;;;;;12.65;5.72;;;;;;;1.59;66.37;100822.75;12970624;22;20066;-67
2023/03/16 02:53:07;;;;;;;10.80;5.25;;;;;;;1.62;65.60;100825.19;12983565;22;20077;-68
2023/03/16 02:58:08;;;;;;;15.55;6.65;;;;;;;1.64;66.11;100814.47;12967477;22;20081;-67
2023/03/16 03:03:10;;;;;;;13.27;5.53;;;;;;;1.65;66.05;100809.06;12969821;22;20031;-67
2023/03/16 03:08:12;;;;;;;11.80;5.22;;;;;;;1.68;66.40;100803.56;12971594;22;20024;-66
2023/03/16 03:13:14;;;;;;;10.82;4.97;;;;;;;1.67;65.92;100793.06;12972075;22;20027;-67
2023/03/16 03:18:15;;;;;;;11.85;5.68;;;;;;;1.63;65.62;100792.41;12972599;22;20401;-67
2023/03/16 03:23:17;;;;;;;12.00;5.35;;;;;;;1.67;66.19;100801.00;12986709;22;20098;-67
2023/03/16 03:28:18;;;;;;;15.00;5.75;;;;;;;1.69;66.32;100804.41;12974179;22;20019;-67
2023/03/16 03:33:21;;;;;;;11.68;5.78;;;;;;;1.72;65.60;100806.84;12981058;22;20074;-68
2023/03/16 03:38:23;;;;;;;8.98;4.85;;;;;;;1.65;66.05;100805.56;12985024;22;20032;-68
2023/03/16 03:43:25;;;;;;;10.30;5.03;;;;;;;1.63;66.33;100807.47;12944067;22;20597;-67
2023/03/16 03:48:27;;;;;;;15.02;6.35;;;;;;;1.62;65.82;100806.63;12973781;22;20019;-67
2023/03/16 03:53:28;;;;;;;11.82;6.35;;;;;;;1.67;66.09;100808.97;12974644;22;20514;-67
2023/03/16 03:58:30;;;;;;;13.43;6.05;;;;;;;1.63;66.59;100800.38;12972883;22;20067;-67
2023/03/16 04:03:31;;;;;;;13.30;5.38;;;;;;;1.65;66.57;100806.41;12971243;22;20599;-67
2023/03/16 04:08:34;;;;;;;12.70;5.57;;;;;;;1.55;66.46;100811.50;12973168;22;20019;-67
2023/03/16 04:13:35;;;;;;;15.90;6.38;;;;;;;1.52;66.98;100798.47;12973648;22;20360;-67
2023/03/16 04:18:39;;;;;;;11.23;5.32;;;;;;;1.56;66.04;100796.44;12971893;22;20505;-67
2023/03/16 04:23:41;;;;;;;12.68;5.65;;;;;;;1.55;66.55;100797.41;12945119;22;20023;-67
2023/03/16 04:28:42;;;;;;;11.57;5.53;;;;;;;1.56;67.02;100784.06;12973215;22;20035;-66
2023/03/16 04:33:44;;;;;;;11.77;6.28;;;;;;;1.55;66.20;100782.34;12945485;22;20024;-67
2023/03/16 04:38:45;;;;;;;13.65;6.47;;;;;;;1.47;66.82;100775.91;12946082;22;20472;-66
2023/03/16 04:43:47;;;;;;;15.43;7.03;;;;;;;1.43;66.42;100777.91;12973040;22;20028;-67
2023/03/16 04:48:48;;;;;;;13.73;6.90;;;;;;;1.38;66.40;100766.78;12972416;22;20024;-67
2023/03/16 04:53:50;;;;;;;12.57;7.13;;;;;;;1.38;67.04;100772.09;12973913;22;20016;-67
2023/03/16 04:58:51;;;;;;;16.40;6.97;;;;;;;1.34;66.68;100784.72;12972247;22;20028;-67
2023/03/16 05:03:53;;;;;;;12.02;5.53;;;;;;;1.16;67.18;100785.97;12972430;22;20035;-67
2023/03/16 05:08:54;;;;;;;11.05;5.32;;;;;;;1.22;66.97;100782.03;12972376;22;20027;-67
2023/03/16 05:13:55;;;;;;;13.85;7.40;;;;;;;1.28;67.10;100779.81;12973059;22;20083;-67
2023/03/16 05:18:58;;;;;;;12.82;6.13;;;;;;;1.36;67.23;100779.28;12942240;22;20533;-67
2023/03/16 05:23:59;;;;;;;12.77;5.80;;;;;;;1.33;67.08;100766.28;12972411;22;20026;-67
2023/03/16 05:29:01;;;;;;;12.68;5.97;;;;;;;1.26;67.77;100771.13;12943535;22;20024;-67
2023/03/16 05:34:02;;;;;;;19.83;8.25;;;;;;;1.29;67.94;100788.63;12966199;22;20031;-67
2023/03/16 05:39:04;;;;;;;16.70;7.15;;;;;;;1.29;67.34;100778.88;12943885;22;20034;-67
2023/03/16 05:44:06;;;;;;;18.02;7.28;;;;;;;1.43;67.46;100777.09;12967683;22;20077;-67
2023/03/16 05:49:07;;;;;;;15.13;7.03;;;;;;;1.52;66.83;100772.00;12969624;22;20023;-67
2023/03/16 05:54:08;;;;;;;12.55;6.28;;;;;;;1.53;67.54;100760.44;12972510;22;20026;-67
2023/03/16 05:59:10;;;;;;;14.10;6.50;;;;;;;1.66;67.34;100757.78;12971965;22;20026;-67
2023/03/16 06:04:11;;;;;;;14.52;6.68;;;;;;;1.81;67.26;100750.53;12971990;22;20073;-67
2023/03/16 06:09:13;;;;;;;11.88;6.88;;;;;;;1.95;67.70;100752.19;12943191;22;20107;-67
2023/03/16 06:14:14;;;;;;;12.05;6.28;;;;;;;2.03;67.54;100760.44;12971580;22;20395;-67
2023/03/16 06:19:15;;;;;;;12.70;5.03;;;;;;;2.13;67.14;100755.31;12969999;22;20089;-68
2023/03/16 06:24:17;;;;;;;14.18;5.50;;;;;;;2.24;67.41;100770.44;12971108;22;20030;-67
2023/03/16 06:29:18;;;;;;;11.48;5.78;;;;;;;2.12;67.84;100761.59;12969635;22;20019;-68
2023/03/16 06:34:19;;;;;;;12.45;5.72;;;;;;;2.17;68.33;100768.25;12968775;22;20085;-68
2023/03/16 06:39:21;;;;;;;13.57;5.88;;;;;;;2.27;68.74;100771.06;12966993;22;20028;-67
2023/03/16 06:44:22;;;;;;;14.63;6.95;;;;;;;2.47;68.02;100774.91;12986488;22;20023;-68
2023/03/16 06:49:24;;;;;;;9.75;4.97;;;;;;;2.63;68.64;100771.97;12978839;22;20537;-68
2023/03/16 06:54:25;;;;;;;10.35;5.10;;;;;;;2.89;68.33;100771.81;12976170;22;20023;-68
2023/03/16 06:59:27;;;;;;;12.18;5.55;;;;;;;3.11;68.14;100765.72;12978158;22;20032;-67
2023/03/16 07:04:28;;;;;;;16.02;6.72;;;;;;;3.45;67.84;100763.09;12958258;22;20016;-65
2023/03/16 07:09:30;;;;;;;13.75;6.80;;;;;;;3.78;67.59;100764.94;12992225;22;20026;-66
2023/03/16 07:14:32;;;;;;;12.57;6.18;;;;;;;4.03;67.62;100757.63;12981611;22;20491;-66
2023/03/16 07:19:33;;;;;;;13.93;6.05;;;;;;;4.30;67.28;100767.84;12988805;22;20057;-69
2023/03/16 07:24:34;;;;;;;12.15;6.20;;;;;;;4.39;67.32;100772.44;12980869;22;20015;-64
2023/03/16 07:29:36;;;;;;;11.20;5.57;;;;;;;4.67;66.99;100783.47;12983652;22;20027;-64
2023/03/16 07:34:37;;;;;;;10.13;5.05;;;;;;;4.85;66.64;100762.44;12984898;22;20020;-64
2023/03/16 07:39:38;;;;;;;11.48;5.72;;;;;;;4.99;66.73;100766.63;12980241;22;20027;-65
2023/03/16 07:44:40;;;;;;;9.20;5.18;;;;;;;5.10;66.25;100758.56;12993209;22;20020;-65
2023/03/16 07:49:43;;;;;;;10.00;5.78;;;;;;;5.17;65.98;100759.72;12951607;22;20383;-65
2023/03/16 07:54:44;;;;;;;15.18;5.47;;;;;;;5.32;65.61;100758.41;12979346;22;20647;-64
2023/03/16 07:59:46;;;;;;;8.85;4.82;;;;;;;5.52;65.60;100750.50;12976645;22;20027;-66
2023/03/16 08:04:48;;;;;;;12.68;5.97;;;;;;;5.75;65.50;100744.00;12976057;22;20032;-65
2023/03/16 08:09:50;;;;;;;9.77;5.00;;;;;;;5.96;65.66;100745.78;12949100;22;20450;-65
2023/03/16 08:14:53;;;;;;;13.35;5.25;;;;;;;6.12;64.66;100740.78;12981465;22;20030;-70
2023/03/16 08:19:54;;;;;;;10.25;5.30;;;;;;;6.31;65.21;100749.81;12978333;22;20081;-67
2023/03/16 08:24:56;;;;;;;10.90;6.28;;;;;;;6.44;64.16;100745.03;12992708;22;20024;-68
2023/03/16 08:30:03;;;;;;;10.27;5.25;;;;;;;6.62;63.75;100736.34;12984831;22;20219;-66
2023/03/16 08:35:07;;;;;;;11.60;6.30;;;;;;;6.73;63.71;100726.34;12962396;22;20035;-68
2023/03/16 08:40:12;;;;;;;9.52;5.25;;;;;;;6.74;64.61;100721.84;12990179;22;20028;-66
2023/03/16 08:45:14;;;;;;;9.82;5.35;;;;;;;6.88;63.30;100717.91;12960857;22;20024;-68
2023/03/16 08:50:15;;;;;;;12.75;5.53;;;;;;;7.02;63.42;100717.44;12946350;22;20087;-68
2023/03/16 08:55:17;;;;;;;7.85;5.43;;;;;;;7.21;63.23;100718.38;12976287;22;20032;-68
2023/03/16 09:00:19;;;;;;;12.82;5.68;;;;;;;7.38;62.68;100711.44;12974311;22;20074;-69
2023/03/16 09:05:22;;;;;;;11.98;5.85;;;;;;;7.52;63.07;100693.09;12973882;22;20035;-67
2023/03/16 09:10:24;;;;;;;10.80;5.95;;;;;;;7.66;62.68;100701.59;12946926;22;20353;-66
2023/03/16 09:15:26;;;;;;;8.65;5.20;;;;;;;7.89;62.43;100704.72;12997911;22;20039;-67
2023/03/16 09:20:27;;;;;;;10.00;5.10;;;;;;;8.04;61.43;100710.41;13011857;22;20057;-66
2023/03/16 09:25:31;;;;;;;7.97;4.65;;;;;;;8.18;61.42;100695.69;12994031;22;20030;-68
2023/03/16 09:30:33;;;;;;;10.27;4.10;;;;;;;8.34;61.08;100695.81;12971359;22;20368;-69
2023/03/16 09:35:35;;;;;;;8.13;4.65;;;;;;;8.48;60.43;100667.69;12974137;22;20027;-69
2023/03/16 09:40:37;;;;;;;6.05;4.25;;;;;;;8.86;59.84;100669.13;12971163;22;20053;-70
2023/03/16 09:46:06;;;;;;;7.50;4.10;;;;;;;8.94;59.21;100668.34;12972021;22;20062;-68
2023/03/16 09:51:21;;;;;;;6.95;4.40;;;;;;;9.19;58.96;100655.09;12968943;22;20024;-68
2023/03/16 09:56:36;;;;;;;7.43;4.45;;;;;;;9.60;58.08;100661.50;12942324;22;20032;-68
2023/03/16 10:01:53;;;;;;;6.97;4.38;;;;;;;9.85;57.40;100661.56;12971655;22;20077;-68
2023/03/16 10:07:24;;;;;;;5.22;3.60;;;;;;;10.10;56.82;100660.63;12972071;22;20092;-68
2023/03/16 10:12:34;;;;;;;5.72;3.33;;;;;;;10.28;56.13;100663.16;12914238;22;20015;-69
2023/03/16 10:17:44;;;;;;;6.28;3.88;;;;;;;10.39;55.51;100664.72;12949729;22;20058;-69
2023/03/16 10:22:49;;;;;;;5.65;4.00;;;;;;;10.61;55.17;100663.22;12949012;22;20098;-67
2023/03/16 10:27:51;;;;;;;10.80;3.55;;;;;;;10.90;54.29;100654.63;12973734;22;20330;-68
2023/03/16 10:32:56;;;;;;;6.45;4.32;;;;;;;11.23;53.66;100651.84;12975272;22;20024;-68
2023/03/16 10:37:57;;;;;;;5.78;3.72;;;;;;;11.44;53.16;100645.06;12970229;22;20034;-68
2023/03/16 10:43:11;;;;;;;4.95;3.65;;;;;;;11.55;52.90;100644.66;12972313;22;20459;-68
2023/03/16 10:48:17;;;;;;;9.82;3.95;;;;;;;11.47;52.60;100642.00;12976753;22;20028;-68
2023/03/16 10:53:22;;;;;;;5.63;4.05;;;;;;;11.56;52.00;100638.28;12972726;22;20020;-67
2023/03/16 10:58:28;;;;;;;4.35;3.15;;;;;;;11.84;51.36;100638.63;12972677;22;20031;-69
2023/03/16 11:03:38;;;;;;;6.68;4.00;;;;;;;11.98;51.19;100622.75;12973674;22;20019;-67
2023/03/16 11:08:40;;;;;;;5.10;3.65;;;;;;;12.14;50.68;100630.72;12976399;22;20081;-68
2023/03/16 11:13:46;;;;;;;6.22;3.53;;;;;;;12.27;50.32;100622.88;12981184;22;20046;-69
2023/03/16 11:18:55;;;;;;;5.95;3.55;;;;;;;12.37;49.91;100611.03;12976367;22;20085;-68
2023/03/16 11:23:58;;;;;;;5.55;3.50;;;;;;;12.57;49.76;100600.56;12954456;22;20028;-70
2023/03/16 11:29:34;;;;;;;5.65;3.28;;;;;;;12.69;48.98;100597.22;12952403;22;20032;-69
2023/03/16 11:34:36;;;;;;;5.65;2.88;;;;;;;12.94;48.59;100590.75;12932868;22;20054;-69
2023/03/16 11:39:57;;;;;;;4.85;3.17;;;;;;;12.74;48.52;100594.00;12984199;22;20023;-69
2023/03/16 11:45:04;;;;;;;7.78;3.17;;;;;;;13.04;48.08;100584.03;12966481;22;20032;-68
2023/03/16 11:50:37;;;;;;;4.80;2.83;;;;;;;13.28;47.89;100582.06;12959151;22;20024;-68
2023/03/16 11:56:04;;;;;;;4.45;3.45;;;;;;;13.75;46.90;100574.56;12852924;22;20023;-70
2023/03/16 12:01:40;;;;;;;5.78;2.90;;;;;;;14.14;46.16;100549.78;12953323;22;20077;-67
2023/03/16 12:07:19;;;;;;;7.85;3.33;;;;;;;14.40;45.81;100545.66;12977380;22;20147;-68
2023/03/16 12:12:47;;;;;;;5.43;3.08;;;;;;;14.34;45.73;100558.06;12954849;22;20039;-68
2023/03/16 12:17:56;;;;;;;7.03;4.15;;;;;;;14.54;44.96;100557.41;12973944;22;20488;-67
2023/03/16 12:23:04;;;;;;;5.38;3.35;;;;;;;14.77;44.82;100547.19;12972805;22;20023;-68
2023/03/16 12:28:17;;;;;;;7.22;3.38;;;;;;;14.77;44.47;100533.66;12945079;22;20035;-68
2023/03/16 12:33:30;;;;;;;4.60;2.90;;;;;;;14.70;44.20;100532.75;12972636;22;20026;-68
2023/03/16 12:38:52;;;;;;;3.85;2.53;;;;;;;14.76;44.29;100515.72;12975347;22;20504;-67
2023/03/16 12:44:09;;;;;;;7.03;3.47;;;;;;;14.84;43.87;100515.56;12977304;22;20085;-68
2023/03/16 12:49:11;;;;;;;9.25;6.00;;;;;;;14.79;44.04;100523.47;12999530;22;20027;-68
2023/03/16 12:54:21;;;;;;;5.60;3.60;;;;;;;14.82;44.03;100514.09;13001736;22;20062;-68
2023/03/16 12:59:24;;;;;;;8.90;3.38;;;;;;;15.07;43.89;100498.19;13011416;22;20028;-67
2023/03/16 13:04:31;;;;;;;6.35;3.45;;;;;;;15.40;43.26;100484.78;13015283;22;20019;-67
2023/03/16 13:09:40;;;;;;;4.57;2.70;;;;;;;15.86;42.74;100480.50;13019980;22;20008;-67
2023/03/16 13:14:43;;;;;;;4.50;3.10;;;;;;;15.77;43.08;100473.59;12969179;22;20086;-67
2023/03/16 13:19:58;;;;;;;3.95;3.28;;;;;;;15.69;43.17;100471.88;12998367;22;20024;-68
2023/03/16 13:25:14;;;;;;;3.92;3.00;;;;;;;15.88;42.94;100447.72;13005894;22;20078;-67
2023/03/16 13:30:23;;;;;;;5.40;3.33;;;;;;;15.92;42.98;100446.31;13018526;22;20008;-67
2023/03/16 13:35:29;;;;;;;6.35;3.10;;;;;;;15.60;43.08;100452.28;13001717;22;20030;-67
2023/03/16 13:40:31;;;;;;;7.07;2.78;;;;;;;15.56;42.97;100456.47;12987911;22;20039;-67
2023/03/16 13:45:37;;;;;;;4.57;3.33;;;;;;;15.54;42.71;100442.28;12995147;22;20046;-67
2023/03/16 13:50:41;;;;;;;4.63;3.13;;;;;;;15.54;42.86;100441.44;13007553;22;20036;-67
2023/03/16 13:55:45;;;;;;;5.18;3.00;;;;;;;15.34;43.17;100454.94;13009288;22;20781;-66
2023/03/16 14:00:47;;;;;;;4.00;2.60;;;;;;;15.46;43.40;100445.16;13009638;22;20023;-66
2023/03/16 14:05:48;;;;;;;6.85;3.10;;;;;;;15.67;42.60;100428.72;13011466;22;20027;-66
2023/03/16 14:10:53;;;;;;;4.35;2.92;;;;;;;15.76;42.58;100412.31;13006575;22;20073;-67
2023/03/16 14:15:58;;;;;;;5.18;2.58;;;;;;;15.62;42.74;100420.41;12990657;22;20054;-66
2023/03/16 14:21:06;;;;;;;3.97;2.60;;;;;;;15.49;42.88;100408.72;12994204;22;20038;-66
2023/03/16 14:26:14;;;;;;;3.40;1.88;;;;;;;15.39;42.77;100393.69;13001548;22;20089;-66
2023/03/16 14:31:19;;;;;;;5.03;2.83;;;;;;;15.19;43.24;100373.88;13002964;22;20058;-66
2023/03/16 14:36:21;;;;;;;3.95;2.10;;;;;;;15.09;43.20;100385.13;13009326;22;20027;-66
2023/03/16 14:41:28;;;;;;;4.40;2.58;;;;;;;15.04;43.30;100395.72;12996900;22;20097;-68
2023/03/16 14:46:33;;;;;;;4.18;1.75;;;;;;;14.88;43.24;100389.63;12999090;22;20062;-68
2023/03/16 14:51:38;;;;;;;7.13;3.25;;;;;;;14.85;43.36;100386.50;12992295;22;20076;-67
2023/03/16 14:56:41;;;;;;;2.88;1.90;;;;;;;14.97;43.35;100363.22;12996349;22;20027;-67
2023/03/16 15:01:43;;;;;;;2.97;1.88;;;;;;;15.00;43.27;100356.56;13008849;22;20077;-67
2023/03/16 15:06:46;;;;;;;4.63;2.38;;;;;;;15.20;42.76;100352.00;13006159;22;20027;-67
2023/03/16 15:11:47;;;;;;;3.58;1.75;;;;;;;15.83;42.12;100353.50;13014463;22;20024;-67
2023/03/16 15:16:48;;;;;;;5.18;2.42;;;;;;;16.08;41.62;100350.13;12996772;22;20062;-68
2023/03/16 15:21:50;;;;;;;4.68;1.88;;;;;;;16.14;41.69;100355.53;12994911;22;20024;-68
2023/03/16 15:26:51;;;;;;;3.70;1.77;;;;;;;16.26;41.64;100345.69;12980026;22;20404;-67
2023/03/16 15:31:53;;;;;;;2.47;1.80;;;;;;;16.22;41.41;100330.06;12978526;22;20027;-68
2023/03/16 15:36:55;;;;;;;4.95;1.33;;;;;;;15.78;41.24;100323.50;12985500;22;20326;-67
2023/03/16 15:41:56;;;;;;;3.38;1.83;;;;;;;15.65;41.56;100329.72;12975789;22;20024;-68
2023/03/16 15:46:59;;;;;;;2.97;1.55;;;;;;;15.48;41.56;100315.75;12963237;22;20024;-68
2023/03/16 15:52:00;;;;;;;3.53;1.30;;;;;;;15.39;41.50;100315.13;12974821;22;20468;-68
2023/03/16 15:57:02;;;;;;;3.05;1.48;;;;;;;15.39;41.41;100314.31;12996672;22;20102;-68
2023/03/16 16:02:24;;;;;;;2.70;1.38;;;;;;;15.44;41.36;100309.09;12958600;22;20027;-68
2023/03/16 16:07:26;;;;;;;2.88;1.33;;;;;;;15.33;41.41;100315.16;13004204;22;20020;-68
2023/03/16 16:12:31;;;;;;;4.53;1.38;;;;;;;15.27;41.46;100304.09;12977907;22;20463;-68
2023/03/16 16:17:32;;;;;;;1.48;0.90;;;;;;;15.05;41.91;100308.88;12993658;22;20078;-68
2023/03/16 16:22:58;;;;;;;3.05;1.33;;;;;;;14.79;42.01;100304.25;12986706;22;20034;-68
2023/03/16 16:28:00;;;;;;;3.05;1.10;;;;;;;14.52;42.24;100297.91;12970709;22;20024;-69
2023/03/16 16:33:01;;;;;;;2.88;1.20;;;;;;;14.28;42.48;100286.59;12992855;22;20039;-66
2023/03/16 16:38:03;;;;;;;2.03;1.02;;;;;;;14.05;42.76;100297.69;13019968;22;20027;-69
2023/03/16 16:43:05;;;;;;;2.15;1.05;;;;;;;13.94;42.95;100300.13;13005080;22;20038;-70
2023/03/16 16:48:26;;;;;;;4.18;1.40;;;;;;;13.79;43.26;100294.88;12997286;22;20031;-66
2023/03/16 16:53:28;;;;;;;3.58;1.80;;;;;;;13.66;43.61;100301.84;13005388;22;20043;-68
2023/03/16 16:58:29;;;;;;;5.57;1.95;;;;;;;13.53;43.63;100307.16;12986844;22;20027;-68
2023/03/16 17:03:32;;;;;;;2.63;1.77;;;;;;;13.38;43.96;100295.59;12986922;22;20020;-67
2023/03/16 17:08:34;;;;;;;3.05;0.90;;;;;;;13.24;44.26;100297.34;12991014;22;20020;-68
2023/03/16 17:13:39;;;;;;;3.70;1.98;;;;;;;13.06;44.46;100287.84;12994452;22;20020;-67
2023/03/16 17:18:41;;;;;;;2.63;1.30;;;;;;;12.85;44.85;100280.56;12986726;22;20020;-67
2023/03/16 17:23:43;;;;;;;2.47;0.70;;;;;;;12.74;45.14;100282.94;13001314;22;20012;-68
2023/03/16 17:29:06;;;;;;;3.85;1.52;;;;;;;12.57;45.42;100285.06;13027740;22;20024;-69
2023/03/16 17:34:18;;;;;;;3.83;1.00;;;;;;;12.41;45.39;100283.44;13027616;22;20025;-68
2023/03/16 17:39:27;;;;;;;2.22;0.90;;;;;;;12.21;45.76;100286.72;13028491;22;20026;-68
2023/03/16 17:44:32;;;;;;;5.65;1.38;;;;;;;12.06;46.17;100289.41;13021841;22;20023;-68
2023/03/16 17:49:33;;;;;;;3.67;1.10;;;;;;;11.98;46.21;100288.69;13025613;22;20026;-67
2023/03/16 17:54:35;;;;;;;2.25;1.15;;;;;;;11.77;47.05;100294.78;13007550;22;20064;-68
2023/03/16 17:59:36;;;;;;;2.22;1.38;;;;;;;11.73;47.01;100288.97;12988403;22;20483;-66
2023/03/16 18:04:38;;;;;;;2.50;1.13;;;;;;;11.55;47.05;100275.00;12971518;22;20026;-67
2023/03/16 18:09:39;;;;;;;1.73;0.82;;;;;;;11.43;47.56;100288.06;12972141;22;20023;-65
2023/03/16 18:14:41;;;;;;;1.73;0.80;;;;;;;11.29;47.88;100287.00;12972079;22;20020;-65
2023/03/16 18:19:44;;;;;;;4.03;0.98;;;;;;;11.16;48.16;100282.28;12943927;22;20024;-64
2023/03/16 18:24:47;;;;;;;3.75;1.77;;;;;;;11.05;48.32;100283.53;12970603;22;20031;-65
2023/03/16 18:29:48;;;;;;;5.03;1.15;;;;;;;10.96;48.58;100276.56;12971066;22;20050;-64
2023/03/16 18:34:51;;;;;;;3.35;1.20;;;;;;;10.85;48.65;100285.88;12971287;22;20023;-63
2023/03/16 18:39:53;;;;;;;6.85;1.67;;;;;;;10.77;49.07;100291.31;12970533;22;20098;-65
2023/03/16 18:44:55;;;;;;;3.20;1.85;;;;;;;10.67;49.33;100286.16;12971597;22;20524;-65
2023/03/16 18:49:56;;;;;;;6.05;1.88;;;;;;;10.65;49.44;100288.19;12971334;22;20027;-65
2023/03/16 18:54:58;;;;;;;6.10;1.40;;;;;;;10.59;49.51;100277.31;12970719;22;20043;-66
2023/03/16 18:59:59;;;;;;;3.92;2.03;;;;;;;10.50;49.65;100288.13;12971180;22;20023;-65
2023/03/16 19:05:03;;;;;;;11.93;2.97;;;;;;;10.41;50.05;100281.13;12970032;22;20015;-66
2023/03/16 19:10:17;;;;;;;6.10;2.20;;;;;;;10.27;50.51;100282.69;12972496;22;20077;-64
2023/03/16 19:15:32;;;;;;;6.13;2.33;;;;;;;10.17;50.56;100275.81;12970472;22;20023;-67
2023/03/16 19:20:34;;;;;;;6.93;2.88;;;;;;;10.09;51.11;100274.88;12940463;22;20031;-65
2023/03/16 19:25:38;;;;;;;5.30;2.50;;;;;;;9.93;51.12;100294.56;12969600;22;20101;-66
2023/03/16 19:30:40;;;;;;;7.05;2.15;;;;;;;9.93;51.37;100286.53;12969617;22;20034;-65
2023/03/16 19:35:42;;;;;;;5.28;2.10;;;;;;;9.89;50.94;100276.28;12967811;22;20461;-66
2023/03/16 19:40:58;;;;;;;4.82;2.35;;;;;;;9.87;51.12;100278.31;12968586;22;20023;-67
2023/03/16 19:45:59;;;;;;;4.22;2.67;;;;;;;9.85;51.21;100269.59;12969637;22;20034;-65
2023/03/16 19:51:01;;;;;;;6.00;2.40;;;;;;;9.78;51.49;100277.50;12945121;22;20023;-66
2023/03/16 19:56:03;;;;;;;4.18;2.00;;;;;;;9.73;51.47;100272.66;12926428;22;20502;-65
2023/03/16 20:01:15;;;;;;;4.88;2.58;;;;;;;9.61;51.80;100274.00;12922050;22;20062;-66
2023/03/16 20:06:19;;;;;;;6.95;3.00;;;;;;;9.53;51.83;100264.13;12955185;22;20050;-66
2023/03/16 20:11:23;;;;;;;14.18;9.23;;;;;;;9.31;52.57;100259.50;12972245;22;20081;-66
2023/03/16 20:16:28;;;;;;;18.33;10.18;;;;;;;9.21;53.20;100259.69;12945721;22;20020;-66
2023/03/16 20:21:30;;;;;;;13.48;8.98;;;;;;;9.13;52.96;100265.06;12971538;22;20054;-66
2023/03/16 20:26:32;;;;;;;20.00;11.38;;;;;;;9.07;53.65;100252.31;12969615;22;20403;-66
2023/03/16 20:31:35;;;;;;;29.70;14.43;;;;;;;8.93;53.53;100254.66;12965818;22;20020;-67
2023/03/16 20:36:36;;;;;;;17.42;9.88;;;;;;;8.76;53.64;100254.81;12977326;22;20046;-67
2023/03/16 20:41:38;;;;;;;25.90;12.02;;;;;;;8.69;54.15;100242.09;12968602;22;20468;-66
2023/03/16 20:46:40;;;;;;;20.98;11.25;;;;;;;8.61;54.21;100252.81;12970751;22;20031;-66
2023/03/16 20:51:42;;;;;;;21.73;11.15;;;;;;;8.51;54.73;100239.56;12938865;22;20016;-66
2023/03/16 20:56:43;;;;;;;26.65;11.48;;;;;;;8.48;55.14;100231.03;12970087;22;20085;-65
2023/03/16 21:01:45;;;;;;;17.95;10.25;;;;;;;8.44;55.22;100235.03;12964815;22;20024;-66
2023/03/16 21:06:49;;;;;;;20.58;8.60;;;;;;;8.28;54.97;100239.31;12945332;22;20054;-66
2023/03/16 21:11:51;;;;;;;14.52;8.18;;;;;;;8.27;55.24;100236.78;12969479;22;20024;-66
2023/03/16 21:16:52;;;;;;;15.65;9.32;;;;;;;8.23;55.79;100224.75;12970887;22;20027;-65
2023/03/16 21:21:54;;;;;;;14.48;8.43;;;;;;;8.14;56.05;100232.75;12970997;22;20027;-65
2023/03/16 21:26:55;;;;;;;12.82;6.00;;;;;;;8.08;55.98;100222.72;12945028;22;20023;-66
2023/03/16 21:31:57;;;;;;;8.75;6.05;;;;;;;8.08;56.13;100225.38;12970741;22;20028;-68
2023/03/16 21:36:58;;;;;;;8.77;5.63;;;;;;;8.04;56.04;100226.72;12971414;22;20062;-64
2023/03/16 21:42:00;;;;;;;9.82;5.20;;;;;;;7.96;56.54;100218.66;12972625;22;20030;-66
2023/03/16 21:47:01;;;;;;;10.15;4.93;;;;;;;7.98;56.09;100213.13;12971302;22;20023;-66
2023/03/16 21:52:19;;;;;;;8.35;4.78;;;;;;;8.05;55.82;100211.47;12944675;22;20411;-71
2023/03/16 21:57:20;;;;;;;9.03;5.77;;;;;;;8.05;55.95;100206.13;12951981;22;20024;-67
2023/03/16 22:02:24;;;;;;;8.43;5.70;;;;;;;7.97;56.46;100196.22;12971715;22;20468;-69
2023/03/16 22:07:26;;;;;;;10.27;5.85;;;;;;;7.98;55.80;100192.56;12971748;22;20630;-69
2023/03/16 22:12:27;;;;;;;9.90;6.07;;;;;;;7.98;56.49;100189.88;12973024;22;20070;-70
2023/03/16 22:17:29;;;;;;;9.93;5.70;;;;;;;7.91;56.27;100194.22;12974190;22;20399;-69
2023/03/16 22:22:31;;;;;;;10.27;4.72;;;;;;;7.83;56.34;100196.88;12944882;22;20023;-70
2023/03/16 22:27:33;;;;;;;9.73;5.53;;;;;;;7.83;56.26;100192.34;12971061;22;20046;-70
2023/03/16 22:32:34;;;;;;;12.18;5.28;;;;;;;7.73;56.86;100188.97;12973371;22;20109;-69
2023/03/16 22:37:35;;;;;;;11.63;4.88;;;;;;;7.64;56.35;100174.72;12974621;22;20067;-71
2023/03/16 22:42:38;;;;;;;7.35;4.68;;;;;;;7.58;57.43;100161.97;12972541;22;20333;-70
2023/03/16 22:47:39;;;;;;;9.23;5.68;;;;;;;7.47;56.89;100159.59;12971869;22;20031;-69
2023/03/16 22:52:41;;;;;;;8.40;3.35;;;;;;;7.38;57.16;100177.44;12975536;22;20027;-71
2023/03/16 22:57:45;;;;;;;8.38;4.22;;;;;;;7.27;57.38;100172.38;12971431;22;20069;-69
2023/03/16 23:02:48;;;;;;;7.95;3.58;;;;;;;7.20;57.38;100168.66;12970462;22;20027;-69
2023/03/16 23:07:50;;;;;;;11.02;4.55;;;;;;;7.14;57.44;100160.25;12970544;22;20066;-72
2023/03/16 23:12:52;;;;;;;11.65;4.20;;;;;;;7.20;57.57;100157.97;12971240;22;20020;-70
2023/03/16 23:17:54;;;;;;;7.43;3.83;;;;;;;7.19;58.63;100161.63;12970926;22;20031;-70
2023/03/16 23:22:55;;;;;;;8.73;4.30;;;;;;;7.02;58.85;100155.38;12972224;22;20035;-69